Time;durP1;ratioP1;P1;durP2;ratioP2;P2;SDS_P1;SDS_P2;PMS_P1;PMS_P2;Temp;Humidity;BMP_temperature;BMP_pressure;BME280_temperature;BME280_humidity;BME280_pressure;Samples;Min_cycle;Max_cycle;Signal;HPM_P1;HPM_P2
2024/02/25 00:00:59;;;;;;;3.57;3.27;;;5.60;99.90;;;;;;5070574;28;20436;-66
2024/02/25 00:03:25;;;;;;;4.43;3.40;;;5.60;99.90;;;;;;5070718;28;20294;-66
2024/02/25 00:05:50;;;;;;;6.27;3.33;;;5.60;99.90;;;;;;5070082;28;20527;-65
2024/02/25 00:08:16;;;;;;;5.83;3.60;;;5.60;99.90;;;;;;5070131;28;20212;-67
2024/02/25 00:10:42;;;;;;;3.60;2.97;;;5.60;99.90;;;;;;5070004;28;20207;-65
2024/02/25 00:13:07;;;;;;;4.17;3.50;;;5.60;99.90;;;;;;5069980;28;20194;-67
2024/02/25 00:15:33;;;;;;;6.20;2.90;;;5.60;99.90;;;;;;5070336;28;20216;-65
2024/02/25 00:17:58;;;;;;;3.43;2.70;;;5.60;99.90;;;;;;5070513;28;20204;-66
2024/02/25 00:20:24;;;;;;;3.17;2.80;;;5.60;99.90;;;;;;5069921;28;20189;-65
2024/02/25 00:22:50;;;;;;;2.80;2.60;;;5.60;99.90;;;;;;5069702;28;20210;-64
2024/02/25 00:25:16;;;;;;;3.50;2.80;;;5.60;99.90;;;;;;5066433;28;20224;-65
2024/02/25 00:27:42;;;;;;;4.53;2.47;;;5.60;99.90;;;;;;5070300;28;20539;-64
2024/02/25 00:30:08;;;;;;;2.70;2.50;;;5.60;99.90;;;;;;5069834;28;20328;-65
2024/02/25 00:32:33;;;;;;;12.83;8.23;;;5.60;99.90;;;;;;5069772;28;20684;-63
2024/02/25 00:35:00;;;;;;;4.63;4.20;;;5.60;99.90;;;;;;5069863;28;20493;-65
2024/02/25 00:37:26;;;;;;;3.30;3.00;;;5.60;99.90;;;;;;5067336;28;20179;-66
2024/02/25 00:39:51;;;;;;;4.57;3.07;;;5.60;99.90;;;;;;5069876;28;20460;-62
2024/02/25 00:42:17;;;;;;;4.10;2.57;;;5.60;99.90;;;;;;5069812;28;20259;-65
2024/02/25 00:44:48;;;;;;;6.07;3.20;;;5.60;99.90;;;;;;5069150;28;20273;-65
2024/02/25 00:47:14;;;;;;;2.73;2.53;;;5.60;99.90;;;;;;5063814;28;20175;-66
2024/02/25 00:49:41;;;;;;;3.40;2.30;;;5.60;99.90;;;;;;5072887;28;20751;-65
2024/02/25 00:52:07;;;;;;;4.00;2.83;;;5.60;99.90;;;;;;5066959;28;20202;-65
2024/02/25 00:54:32;;;;;;;3.50;2.63;;;5.70;99.90;;;;;;5071510;28;20974;-64
2024/02/25 00:56:58;;;;;;;3.93;2.97;;;5.70;99.90;;;;;;5071910;28;20188;-67
2024/02/25 00:59:23;;;;;;;5.93;3.37;;;5.70;99.90;;;;;;5071754;28;20226;-66
2024/02/25 01:01:50;;;;;;;3.70;2.50;;;5.70;99.90;;;;;;5071874;28;20186;-66
2024/02/25 01:04:18;;;;;;;2.47;2.10;;;5.70;99.90;;;;;;5072984;28;20186;-65
2024/02/25 01:06:43;;;;;;;3.17;1.83;;;5.70;99.90;;;;;;5071926;28;20484;-66
2024/02/25 01:09:10;;;;;;;2.97;2.33;;;5.70;99.90;;;;;;5072023;28;20523;-66
2024/02/25 01:11:36;;;;;;;2.53;2.33;;;5.70;99.90;;;;;;5067481;28;20609;-66
2024/02/25 01:14:02;;;;;;;3.37;2.00;;;5.70;99.90;;;;;;5069890;28;20520;-66
2024/02/25 01:16:28;;;;;;;2.90;2.50;;;5.70;99.90;;;;;;5071955;28;20427;-66
2024/02/25 01:18:53;;;;;;;3.00;2.07;;;5.70;99.90;;;;;;5068900;28;20840;-65
2024/02/25 01:21:19;;;;;;;5.30;2.33;;;5.70;99.90;;;;;;5072302;28;20320;-64
2024/02/25 01:23:44;;;;;;;3.30;2.40;;;5.60;99.90;;;;;;5071906;28;20221;-66
2024/02/25 01:26:10;;;;;;;2.90;2.17;;;5.60;99.90;;;;;;5071935;28;20190;-65
2024/02/25 01:28:36;;;;;;;2.50;2.30;;;5.60;99.90;;;;;;5071848;28;20206;-65
2024/02/25 01:31:02;;;;;;;2.40;2.20;;;5.60;99.90;;;;;;5069810;28;20186;-66
2024/02/25 01:33:27;;;;;;;2.40;2.20;;;5.50;99.90;;;;;;5071590;28;20433;-66
2024/02/25 01:35:53;;;;;;;2.13;1.93;;;5.50;99.90;;;;;;5071449;28;20209;-65
2024/02/25 01:38:19;;;;;;;3.27;2.63;;;5.50;99.90;;;;;;5071902;28;20725;-67
2024/02/25 01:40:45;;;;;;;3.00;2.70;;;5.50;99.90;;;;;;5071252;28;20197;-66
2024/02/25 01:43:15;;;;;;;2.73;2.40;;;5.50;99.90;;;;;;5071242;28;20444;-65
2024/02/25 01:45:41;;;;;;;2.93;2.40;;;5.40;99.90;;;;;;5071486;28;20223;-65
2024/02/25 01:48:08;;;;;;;2.30;2.10;;;5.40;99.90;;;;;;5071244;28;20420;-65
2024/02/25 01:50:35;;;;;;;2.40;2.20;;;5.30;99.90;;;;;;5071534;28;20181;-63
2024/02/25 01:53:04;;;;;;;2.43;2.23;;;5.40;99.90;;;;;;5071125;28;20479;-65
2024/02/25 01:55:31;;;;;;;2.53;2.30;;;5.30;99.90;;;;;;5071181;28;20883;-65
2024/02/25 01:57:58;;;;;;;2.90;2.60;;;5.20;99.90;;;;;;5071116;28;20413;-66
2024/02/25 02:00:28;;;;;;;3.13;2.60;;;5.20;99.90;;;;;;5071265;28;20440;-65
2024/02/25 02:02:54;;;;;;;2.50;2.30;;;5.20;99.90;;;;;;5058444;28;20448;-64
2024/02/25 02:05:20;;;;;;;3.17;2.93;;;5.10;99.90;;;;;;5069863;28;20811;-68
2024/02/25 02:07:47;;;;;;;3.90;2.90;;;5.10;99.90;;;;;;5066832;28;20170;-64
2024/02/25 02:10:13;;;;;;;2.60;2.27;;;5.10;99.90;;;;;;5071316;28;20541;-65
2024/02/25 02:12:40;;;;;;;5.00;4.50;;;5.10;99.90;;;;;;5070784;28;20554;-64
2024/02/25 02:15:06;;;;;;;2.80;2.53;;;5.00;99.90;;;;;;5071100;28;20409;-64
2024/02/25 02:17:32;;;;;;;4.97;2.70;;;5.00;99.90;;;;;;5069912;28;20474;-65
2024/02/25 02:19:58;;;;;;;3.23;2.93;;;4.90;99.90;;;;;;5070434;28;20543;-65
2024/02/25 02:22:24;;;;;;;3.23;2.40;;;5.00;99.90;;;;;;5071469;28;20475;-64
2024/02/25 02:24:50;;;;;;;3.73;3.03;;;4.90;99.90;;;;;;5067478;28;20799;-65
2024/02/25 02:27:15;;;;;;;2.57;2.30;;;5.00;99.90;;;;;;5071254;28;20249;-65
2024/02/25 02:29:42;;;;;;;2.80;2.60;;;5.00;99.90;;;;;;5067098;28;20174;-65
2024/02/25 02:32:07;;;;;;;4.20;3.20;;;5.00;99.90;;;;;;5071284;28;20205;-66
2024/02/25 02:34:35;;;;;;;3.17;2.47;;;4.90;99.90;;;;;;5071142;28;20425;-64
2024/02/25 02:37:01;;;;;;;3.07;2.77;;;4.80;99.90;;;;;;5070780;28;20186;-64
2024/02/25 02:39:26;;;;;;;4.60;2.53;;;4.70;99.90;;;;;;5070715;28;20467;-64
2024/02/25 02:41:52;;;;;;;3.70;2.50;;;4.80;99.90;;;;;;5071249;28;20202;-63
2024/02/25 02:44:18;;;;;;;2.90;2.50;;;4.70;99.90;;;;;;5071122;28;20166;-65
2024/02/25 02:46:44;;;;;;;3.10;2.87;;;4.70;99.90;;;;;;5070899;28;20416;-66
2024/02/25 02:49:10;;;;;;;5.03;2.47;;;4.60;99.90;;;;;;5071216;28;20622;-65
2024/02/25 02:51:36;;;;;;;3.87;3.53;;;4.60;99.90;;;;;;5071475;28;20175;-65
2024/02/25 02:54:03;;;;;;;6.80;3.07;;;4.60;99.90;;;;;;5070697;28;20777;-64
2024/02/25 02:56:31;;;;;;;2.83;2.50;;;4.60;99.90;;;;;;5070671;28;20236;-65
2024/02/25 02:58:57;;;;;;;3.30;3.03;;;4.50;99.90;;;;;;5070220;28;20506;-62
2024/02/25 03:01:23;;;;;;;3.43;3.13;;;4.50;99.90;;;;;;5070276;28;20412;-65
2024/02/25 03:03:49;;;;;;;4.60;2.97;;;4.60;99.90;;;;;;5076030;28;20206;-65
2024/02/25 03:06:16;;;;;;;3.30;3.10;;;4.60;99.90;;;;;;5068293;28;20420;-67
2024/02/25 03:08:42;;;;;;;3.33;3.03;;;4.60;99.90;;;;;;5070158;28;20827;-64
2024/02/25 03:11:08;;;;;;;3.50;3.03;;;4.60;99.90;;;;;;5068339;28;20425;-64
2024/02/25 03:13:33;;;;;;;3.53;3.00;;;4.60;99.90;;;;;;5070357;28;20190;-64
2024/02/25 03:16:00;;;;;;;6.40;4.30;;;4.60;99.90;;;;;;5070145;28;20182;-64
2024/02/25 03:18:26;;;;;;;4.10;3.20;;;4.50;99.90;;;;;;5070477;28;20194;-64
2024/02/25 03:20:52;;;;;;;4.83;3.50;;;4.50;99.90;;;;;;5070521;28;20462;-65
2024/02/25 03:23:17;;;;;;;5.13;3.87;;;4.50;99.90;;;;;;5069547;28;20202;-65
2024/02/25 03:25:43;;;;;;;4.00;3.43;;;4.40;99.90;;;;;;5070389;28;20266;-64
2024/02/25 03:28:09;;;;;;;3.73;3.43;;;4.40;99.90;;;;;;5070063;28;20182;-65
2024/02/25 03:30:35;;;;;;;3.93;3.63;;;4.40;99.90;;;;;;5070249;28;20261;-65
2024/02/25 03:33:01;;;;;;;3.63;3.30;;;4.40;99.90;;;;;;5072423;28;20567;-65
2024/02/25 03:35:31;;;;;;;3.83;3.53;;;4.30;99.90;;;;;;5074052;28;20178;-65
2024/02/25 03:37:57;;;;;;;3.77;3.47;;;4.30;99.90;;;;;;5073711;28;20511;-65
2024/02/25 03:40:22;;;;;;;4.60;3.33;;;4.30;99.90;;;;;;5073711;28;20499;-65
2024/02/25 03:42:48;;;;;;;3.83;2.80;;;4.30;99.90;;;;;;5073131;28;20443;-65
2024/02/25 03:45:14;;;;;;;5.30;3.80;;;4.30;99.90;;;;;;5073676;28;20178;-65
2024/02/25 03:47:40;;;;;;;3.30;3.03;;;4.30;99.90;;;;;;5073850;28;20456;-64
2024/02/25 03:50:08;;;;;;;5.40;3.50;;;4.30;99.90;;;;;;5073681;28;20543;-64
2024/02/25 03:52:34;;;;;;;3.67;3.37;;;4.30;99.90;;;;;;5073000;28;20202;-65
2024/02/25 03:55:00;;;;;;;6.57;3.67;;;4.30;99.90;;;;;;5073300;28;20448;-63
2024/02/25 03:57:25;;;;;;;4.53;4.13;;;4.20;99.90;;;;;;5073798;28;20179;-64
2024/02/25 03:59:51;;;;;;;3.80;3.50;;;4.20;99.90;;;;;;5073595;28;20464;-65
2024/02/25 04:02:17;;;;;;;5.43;3.87;;;4.20;99.90;;;;;;5073081;28;20217;-65
2024/02/25 04:04:46;;;;;;;5.93;4.37;;;4.10;99.90;;;;;;5078964;28;20213;-65
2024/02/25 04:07:12;;;;;;;4.50;4.10;;;4.30;99.90;;;;;;5066554;28;20173;-65
2024/02/25 04:09:39;;;;;;;4.03;3.60;;;4.30;99.90;;;;;;5073890;28;20421;-64
2024/02/25 04:12:05;;;;;;;3.93;3.63;;;4.20;99.90;;;;;;5072876;28;20449;-64
2024/02/25 04:14:31;;;;;;;4.47;3.70;;;4.20;99.90;;;;;;5073441;28;20424;-64
2024/02/25 04:16:57;;;;;;;7.00;4.40;;;4.20;99.90;;;;;;5069285;28;20581;-64
2024/02/25 04:19:23;;;;;;;4.73;4.10;;;4.20;99.90;;;;;;5072641;28;20452;-65
2024/02/25 04:21:49;;;;;;;4.40;3.80;;;4.10;99.90;;;;;;5072376;28;20428;-64
2024/02/25 04:24:14;;;;;;;3.73;3.37;;;4.10;99.90;;;;;;5073019;28;20178;-65
2024/02/25 04:26:48;;;;;;;5.03;3.87;;;4.10;99.90;;;;;;5073246;28;20413;-64
2024/02/25 04:29:14;;;;;;;3.80;3.30;;;4.10;99.90;;;;;;5072157;28;20178;-65
2024/02/25 04:31:45;;;;;;;7.67;4.67;;;4.00;99.90;;;;;;5072653;28;20777;-64
2024/02/25 04:34:12;;;;;;;4.53;3.50;;;4.00;99.90;;;;;;5072358;28;20450;-64
2024/02/25 04:36:40;;;;;;;6.10;3.73;;;4.00;99.90;;;;;;5072359;28;20424;-65
2024/02/25 04:39:09;;;;;;;3.90;3.37;;;3.90;99.90;;;;;;5072364;28;20463;-64
2024/02/25 04:41:34;;;;;;;4.70;4.30;;;3.90;99.90;;;;;;5072551;28;20416;-64
2024/02/25 04:44:00;;;;;;;4.00;3.60;;;3.90;99.90;;;;;;5071790;28;20437;-64
2024/02/25 04:46:26;;;;;;;3.87;3.50;;;3.90;99.90;;;;;;5073073;28;20177;-64
2024/02/25 04:48:51;;;;;;;4.27;3.87;;;3.90;99.90;;;;;;5073094;28;20663;-64
2024/02/25 04:51:18;;;;;;;4.20;3.80;;;3.80;99.90;;;;;;5072531;28;20277;-63
2024/02/25 04:53:44;;;;;;;5.27;4.13;;;3.80;99.90;;;;;;5072520;28;20668;-65
2024/02/25 04:56:09;;;;;;;4.70;4.17;;;3.80;99.90;;;;;;5072512;28;20452;-64
2024/02/25 04:58:35;;;;;;;3.57;3.17;;;3.80;99.90;;;;;;5072788;28;20201;-63
2024/02/25 05:01:01;;;;;;;9.80;4.77;;;3.70;99.90;;;;;;5072505;28;20184;-67
2024/02/25 05:03:27;;;;;;;4.80;4.20;;;3.70;99.90;;;;;;5077689;28;20205;-63
2024/02/25 05:05:52;;;;;;;4.50;4.10;;;3.70;99.90;;;;;;5072359;28;20417;-65
2024/02/25 05:08:18;;;;;;;5.90;4.53;;;3.70;99.90;;;;;;5072199;28;20178;-65
2024/02/25 05:10:43;;;;;;;5.23;3.90;;;3.60;99.90;;;;;;5072101;28;20186;-64
2024/02/25 05:13:09;;;;;;;4.00;3.70;;;3.60;99.90;;;;;;5071985;28;20198;-65
2024/02/25 05:15:35;;;;;;;5.17;3.90;;;3.60;99.90;;;;;;5072358;28;20170;-65
2024/02/25 05:18:01;;;;;;;5.57;4.30;;;3.60;99.90;;;;;;5071812;28;20182;-64
2024/02/25 05:20:27;;;;;;;7.83;4.17;;;3.60;99.90;;;;;;5071809;28;20206;-64
2024/02/25 05:22:54;;;;;;;3.60;3.30;;;3.60;99.90;;;;;;5067924;28;20472;-66
2024/02/25 05:25:20;;;;;;;4.73;4.23;;;3.50;99.90;;;;;;5070440;28;20795;-64
2024/02/25 05:27:46;;;;;;;5.00;3.93;;;3.50;99.90;;;;;;5071696;28;20416;-64
2024/02/25 05:30:13;;;;;;;3.80;3.50;;;3.50;99.90;;;;;;5071497;28;20458;-65
2024/02/25 05:32:38;;;;;;;3.50;3.20;;;3.50;99.90;;;;;;5070987;28;20440;-65
2024/02/25 05:35:06;;;;;;;5.70;4.30;;;3.50;99.90;;;;;;5071657;28;20428;-65
2024/02/25 05:37:32;;;;;;;4.97;4.20;;;3.40;99.90;;;;;;5071582;28;20178;-65
2024/02/25 05:39:57;;;;;;;4.33;3.60;;;3.40;99.90;;;;;;5071420;28;20466;-65
2024/02/25 05:42:23;;;;;;;5.13;3.70;;;3.40;99.90;;;;;;5071315;28;20436;-66
2024/02/25 05:44:49;;;;;;;4.93;3.87;;;3.40;99.90;;;;;;5071289;28;20308;-64
2024/02/25 05:47:14;;;;;;;3.97;3.57;;;3.40;99.90;;;;;;5071598;28;20174;-64
2024/02/25 05:49:40;;;;;;;4.40;4.00;;;3.30;99.90;;;;;;5071487;28;20426;-64
2024/02/25 05:52:06;;;;;;;4.90;4.03;;;3.30;99.90;;;;;;5071437;28;20615;-61
2024/02/25 05:54:31;;;;;;;4.10;3.63;;;3.30;99.90;;;;;;5062365;28;20645;-65
2024/02/25 05:56:57;;;;;;;6.57;4.70;;;3.20;99.90;;;;;;5071228;28;20182;-65
2024/02/25 05:59:22;;;;;;;3.87;3.50;;;3.20;99.90;;;;;;5070912;28;20205;-65
2024/02/25 06:01:48;;;;;;;5.10;4.33;;;3.20;99.90;;;;;;5070693;28;20522;-63
2024/02/25 06:04:16;;;;;;;4.53;4.13;;;3.20;99.90;;;;;;5077863;28;20174;-63
2024/02/25 06:06:43;;;;;;;4.50;4.10;;;3.20;99.90;;;;;;5071410;28;21068;-64
2024/02/25 06:09:10;;;;;;;4.47;4.07;;;3.20;99.90;;;;;;5071186;28;20485;-64
2024/02/25 06:11:37;;;;;;;5.13;4.23;;;3.20;99.90;;;;;;5069163;28;20416;-65
2024/02/25 06:14:02;;;;;;;6.57;5.10;;;3.20;99.90;;;;;;5071110;28;20439;-65
2024/02/25 06:16:32;;;;;;;4.37;3.97;;;3.20;99.90;;;;;;5071410;28;20781;-64
2024/02/25 06:18:58;;;;;;;6.80;4.50;;;3.20;99.90;;;;;;5071699;28;20227;-65
2024/02/25 06:21:24;;;;;;;4.57;3.67;;;3.20;99.90;;;;;;5071403;28;20412;-65
2024/02/25 06:23:50;;;;;;;7.53;4.90;;;3.20;99.90;;;;;;5071134;28;20440;-65
2024/02/25 06:26:15;;;;;;;5.20;4.03;;;3.20;99.90;;;;;;5071191;28;20253;-66
2024/02/25 06:28:41;;;;;;;4.97;3.90;;;3.20;99.90;;;;;;5069965;28;20690;-65
2024/02/25 06:31:07;;;;;;;5.00;4.07;;;3.30;99.90;;;;;;5070722;28;20273;-65
2024/02/25 06:33:32;;;;;;;5.50;5.00;;;3.20;99.90;;;;;;5070537;28;20189;-63
2024/02/25 06:35:58;;;;;;;6.17;4.30;;;3.30;99.90;;;;;;5071376;28;20181;-65
2024/02/25 06:38:24;;;;;;;4.47;4.07;;;3.30;99.90;;;;;;5071164;28;20197;-65
2024/02/25 06:40:49;;;;;;;5.57;4.23;;;3.30;99.90;;;;;;5069211;28;20208;-65
2024/02/25 06:43:15;;;;;;;5.53;4.20;;;3.30;99.90;;;;;;5067915;28;20186;-65
2024/02/25 06:45:41;;;;;;;5.50;4.40;;;3.30;99.90;;;;;;5071160;28;20182;-67
2024/02/25 06:48:06;;;;;;;3.90;3.53;;;3.30;99.90;;;;;;5070978;28;20203;-65
2024/02/25 06:50:32;;;;;;;5.23;4.47;;;3.40;99.90;;;;;;5069657;28;20581;-65
2024/02/25 06:52:57;;;;;;;5.43;4.57;;;3.40;99.90;;;;;;5070649;28;20202;-65
2024/02/25 06:55:23;;;;;;;5.67;4.13;;;3.40;99.90;;;;;;5070537;28;20194;-64
2024/02/25 06:57:49;;;;;;;6.10;4.90;;;3.50;99.90;;;;;;5069361;28;20177;-65
2024/02/25 07:00:15;;;;;;;5.77;4.43;;;3.60;99.90;;;;;;5060467;28;20182;-66
2024/02/25 07:02:41;;;;;;;5.40;4.70;;;3.60;99.90;;;;;;5073880;28;20213;-66
2024/02/25 07:05:08;;;;;;;4.37;3.70;;;3.60;99.90;;;;;;5075181;28;20420;-66
2024/02/25 07:07:33;;;;;;;9.57;4.33;;;3.70;99.90;;;;;;5073999;28;20206;-64
2024/02/25 07:09:59;;;;;;;5.67;4.20;;;3.70;99.90;;;;;;5074724;28;20556;-66
2024/02/25 07:12:25;;;;;;;4.47;4.13;;;3.70;99.90;;;;;;5074328;28;21262;-64
2024/02/25 07:14:51;;;;;;;4.70;4.27;;;3.80;99.90;;;;;;5073833;28;21016;-65
2024/02/25 07:17:16;;;;;;;5.27;4.33;;;4.00;99.90;;;;;;5073717;28;20645;-66
2024/02/25 07:19:46;;;;;;;4.10;3.73;;;4.10;99.90;;;;;;5068602;28;20486;-67
2024/02/25 07:22:12;;;;;;;6.10;3.43;;;4.30;99.90;;;;;;5074147;28;20190;-65
2024/02/25 07:24:39;;;;;;;5.57;4.80;;;4.30;99.90;;;;;;5073920;28;20409;-67
2024/02/25 07:27:06;;;;;;;5.30;3.70;;;4.50;99.90;;;;;;5074054;28;20404;-65
2024/02/25 07:29:32;;;;;;;4.47;4.07;;;4.50;99.90;;;;;;5073933;28;20416;-65
2024/02/25 07:31:58;;;;;;;5.53;4.10;;;4.60;99.90;;;;;;5073687;28;20444;-65
2024/02/25 07:34:24;;;;;;;5.50;4.00;;;4.60;99.90;;;;;;5072904;28;20474;-65
2024/02/25 07:36:50;;;;;;;5.80;4.63;;;4.80;99.90;;;;;;5073728;28;20256;-66
2024/02/25 07:39:16;;;;;;;6.17;3.80;;;4.80;99.90;;;;;;5073455;28;20869;-63
2024/02/25 07:41:47;;;;;;;9.77;4.50;;;4.80;99.90;;;;;;5073873;28;21681;-65
2024/02/25 07:44:13;;;;;;;7.03;4.00;;;4.80;99.90;;;;;;5074036;28;20745;-65
2024/02/25 07:46:38;;;;;;;4.30;3.90;;;4.70;99.90;;;;;;5074035;28;20417;-64
2024/02/25 07:49:04;;;;;;;9.23;3.87;;;4.80;99.90;;;;;;5073816;28;20274;-63
2024/02/25 07:51:36;;;;;;;6.27;4.37;;;4.80;99.90;;;;;;5073324;28;20177;-65
2024/02/25 07:54:03;;;;;;;4.67;4.27;;;4.90;99.90;;;;;;5073449;28;20267;-65
2024/02/25 07:56:29;;;;;;;5.63;4.40;;;5.00;99.90;;;;;;5073706;28;20791;-64
2024/02/25 07:58:54;;;;;;;4.37;3.77;;;5.10;99.90;;;;;;5073444;28;20460;-63
2024/02/25 08:01:20;;;;;;;5.43;4.80;;;5.30;99.90;;;;;;5073631;28;20520;-67
2024/02/25 08:03:45;;;;;;;4.90;4.30;;;5.30;99.90;;;;;;5081658;28;20343;-66
2024/02/25 08:06:11;;;;;;;4.20;3.70;;;5.50;99.90;;;;;;5073765;28;20220;-65
2024/02/25 08:08:37;;;;;;;4.17;3.77;;;5.80;99.90;;;;;;5072954;28;20227;-65
2024/02/25 08:11:03;;;;;;;8.63;4.90;;;6.30;99.90;;;;;;5070679;28;20419;-65
2024/02/25 08:13:29;;;;;;;4.97;4.03;;;6.30;99.90;;;;;;5073498;28;20204;-65
2024/02/25 08:15:55;;;;;;;5.73;4.03;;;6.40;99.90;;;;;;5073355;28;20421;-66
2024/02/25 08:18:20;;;;;;;4.80;3.83;;;6.90;99.90;;;;;;5071769;28;20497;-65
2024/02/25 08:20:46;;;;;;;5.37;3.77;;;7.20;99.90;;;;;;5072955;28;20911;-66
2024/02/25 08:23:12;;;;;;;3.40;2.93;;;7.20;99.90;;;;;;5072611;28;20217;-66
2024/02/25 08:25:37;;;;;;;4.00;3.60;;;7.40;99.90;;;;;;5072683;28;20169;-66
2024/02/25 08:28:03;;;;;;;4.20;3.80;;;7.60;99.90;;;;;;5072451;28;20577;-66
2024/02/25 08:30:29;;;;;;;4.13;3.40;;;7.00;99.90;;;;;;5072724;28;20167;-65
2024/02/25 08:32:55;;;;;;;5.60;3.90;;;6.90;99.90;;;;;;5072829;28;20237;-68
2024/02/25 08:35:20;;;;;;;4.90;3.50;;;7.00;99.90;;;;;;5072823;28;20171;-67
2024/02/25 08:37:49;;;;;;;4.80;3.73;;;7.00;99.90;;;;;;5069888;28;20175;-64
2024/02/25 08:40:15;;;;;;;6.20;3.90;;;7.60;99.90;;;;;;5069143;28;20743;-67
2024/02/25 08:42:40;;;;;;;5.70;4.20;;;7.60;99.90;;;;;;5072233;28;20519;-66
2024/02/25 08:45:07;;;;;;;5.33;3.93;;;7.50;99.90;;;;;;5072710;28;20813;-66
2024/02/25 08:47:32;;;;;;;4.60;4.20;;;7.10;99.90;;;;;;5064115;28;20701;-67
2024/02/25 08:49:58;;;;;;;5.30;3.67;;;7.10;99.90;;;;;;5072588;28;20519;-67
2024/02/25 08:52:24;;;;;;;3.70;3.40;;;7.30;99.90;;;;;;5070805;28;20271;-66
2024/02/25 08:54:49;;;;;;;5.23;3.10;;;7.40;99.90;;;;;;5072493;28;20273;-64
2024/02/25 08:57:16;;;;;;;7.60;3.73;;;7.80;99.90;;;;;;5072595;28;20193;-64
2024/02/25 08:59:42;;;;;;;4.23;3.77;;;8.30;99.90;;;;;;5072301;28;20456;-66
2024/02/25 09:02:07;;;;;;;6.40;4.13;;;8.60;99.90;;;;;;5072347;28;20529;-65
2024/02/25 09:04:33;;;;;;;3.73;3.00;;;8.70;99.90;;;;;;5072410;28;20166;-69
2024/02/25 09:07:00;;;;;;;4.20;3.60;;;8.70;99.90;;;;;;5070635;28;20174;-65
2024/02/25 09:09:28;;;;;;;2.77;2.57;;;9.00;99.90;;;;;;5071418;28;20174;-63
2024/02/25 09:11:55;;;;;;;3.33;2.40;;;8.90;99.90;;;;;;5071645;28;20420;-66
2024/02/25 09:14:21;;;;;;;3.80;3.50;;;9.30;99.90;;;;;;5071915;28;20416;-66
2024/02/25 09:16:46;;;;;;;4.03;2.60;;;9.50;99.90;;;;;;5072221;28;20443;-66
2024/02/25 09:19:13;;;;;;;4.00;3.70;;;9.80;99.90;;;;;;5071666;28;20505;-66
2024/02/25 09:21:39;;;;;;;3.23;2.90;;;9.90;99.90;;;;;;5071676;28;20170;-66
2024/02/25 09:24:05;;;;;;;5.40;2.93;;;10.60;99.90;;;;;;5071124;28;20441;-66
2024/02/25 09:26:31;;;;;;;3.77;3.07;;;11.80;99.90;;;;;;5071641;28;20476;-66
2024/02/25 09:28:57;;;;;;;4.13;3.33;;;12.10;99.90;;;;;;5071735;28;20410;-66
2024/02/25 09:31:22;;;;;;;3.43;3.13;;;12.50;99.90;;;;;;5071712;28;20174;-65
2024/02/25 09:33:54;;;;;;;3.50;3.00;;;12.30;99.90;;;;;;5071637;28;20234;-65
2024/02/25 09:36:23;;;;;;;3.87;3.30;;;12.20;99.90;;;;;;5071399;28;20653;-63
2024/02/25 09:38:53;;;;;;;4.47;3.27;;;11.60;99.90;;;;;;5071884;28;20540;-66
2024/02/25 09:41:30;;;;;;;2.80;2.60;;;11.40;99.90;;;;;;5071304;28;20411;-65
2024/02/25 09:43:56;;;;;;;3.60;3.30;;;11.80;99.90;;;;;;5069727;28;20448;-66
2024/02/25 09:46:25;;;;;;;3.87;3.57;;;11.50;99.90;;;;;;5071494;28;20399;-66
2024/02/25 09:48:52;;;;;;;3.27;2.97;;;11.60;99.90;;;;;;5071815;28;20413;-65
2024/02/25 09:51:21;;;;;;;3.13;2.87;;;11.20;99.90;;;;;;5071294;28;20504;-66
2024/02/25 09:53:54;;;;;;;3.30;3.00;;;10.90;99.90;;;;;;5071257;28;20480;-66
2024/02/25 09:56:22;;;;;;;3.70;3.20;;;10.60;99.90;;;;;;5071767;28;20425;-65
2024/02/25 09:58:49;;;;;;;5.00;2.97;;;10.60;99.90;;;;;;5071425;28;20450;-66
2024/02/25 10:01:15;;;;;;;4.17;3.27;;;10.50;99.90;;;;;;5071355;28;21084;-66
2024/02/25 10:03:44;;;;;;;4.83;3.47;;;10.50;99.90;;;;;;5071467;28;20458;-65
2024/02/25 10:06:10;;;;;;;4.20;3.80;;;11.10;99.90;;;;;;5071573;28;20455;-65
2024/02/25 10:08:53;;;;;;;4.03;3.73;;;11.00;99.90;;;;;;5071417;28;20441;-65
2024/02/25 10:11:19;;;;;;;3.60;3.30;;;10.90;99.90;;;;;;5071557;28;20179;-66
2024/02/25 10:13:47;;;;;;;4.27;3.40;;;11.10;99.90;;;;;;5071057;28;20589;-65
2024/02/25 10:16:17;;;;;;;4.20;3.10;;;10.80;99.90;;;;;;5071537;28;20486;-66
2024/02/25 10:18:44;;;;;;;8.83;4.73;;;10.40;99.90;;;;;;5071050;28;20463;-65
2024/02/25 10:21:11;;;;;;;3.23;2.63;;;11.00;99.90;;;;;;5071264;28;20941;-65
2024/02/25 10:23:37;;;;;;;45.17;26.40;;;10.70;99.90;;;;;;5071005;28;20726;-66
2024/02/25 10:26:23;;;;;;;10.00;7.13;;;10.70;99.90;;;;;;5071677;28;20416;-66
2024/02/25 10:29:00;;;;;;;17.00;10.63;;;10.60;99.90;;;;;;5072764;28;20918;-66
2024/02/25 10:31:26;;;;;;;43.37;28.70;;;10.70;99.90;;;;;;5070966;28;20404;-66
2024/02/25 10:33:57;;;;;;;5.10;3.83;;;10.80;99.90;;;;;;5070994;28;20442;-66
2024/02/25 10:36:25;;;;;;;11.07;7.30;;;10.60;99.90;;;;;;5071148;28;20208;-65
2024/02/25 10:38:54;;;;;;;3.63;2.40;;;10.80;99.90;;;;;;5070835;28;20463;-66
2024/02/25 10:41:20;;;;;;;3.33;2.80;;;10.60;99.90;;;;;;5072653;28;20416;-64
2024/02/25 10:43:51;;;;;;;4.97;3.47;;;10.70;99.90;;;;;;5074921;28;20509;-64
2024/02/25 10:46:34;;;;;;;19.80;11.03;;;10.90;99.90;;;;;;5075337;28;20412;-64
2024/02/25 10:49:03;;;;;;;5.23;4.47;;;11.00;99.90;;;;;;5068386;28;20436;-64
2024/02/25 10:51:29;;;;;;;13.60;8.87;;;11.10;99.90;;;;;;5075216;28;20416;-66
2024/02/25 10:53:55;;;;;;;3.60;2.70;;;11.00;99.90;;;;;;5075216;28;20454;-67
2024/02/25 10:56:21;;;;;;;10.57;9.43;;;10.70;99.90;;;;;;5074888;28;20475;-65
2024/02/25 10:58:51;;;;;;;5.90;5.30;;;10.70;99.90;;;;;;5056510;28;20973;-65
2024/02/25 11:01:21;;;;;;;3.10;2.53;;;10.70;99.90;;;;;;5074874;28;20952;-65
2024/02/25 11:03:47;;;;;;;3.60;2.57;;;10.70;99.90;;;;;;5075122;28;20522;-64
2024/02/25 11:06:35;;;;;;;3.93;2.60;;;10.70;99.90;;;;;;5074867;28;20412;-64
2024/02/25 11:09:05;;;;;;;2.57;2.37;;;10.70;99.90;;;;;;5073782;28;20416;-65
2024/02/25 11:11:31;;;;;;;2.93;2.00;;;11.00;99.90;;;;;;5074636;28;20454;-64
2024/02/25 11:14:00;;;;;;;2.60;2.40;;;11.00;99.90;;;;;;5074364;28;20420;-64
2024/02/25 11:16:37;;;;;;;2.90;1.90;;;11.00;99.90;;;;;;5074651;28;20232;-62
2024/02/25 11:19:02;;;;;;;2.27;2.03;;;11.00;99.90;;;;;;5074312;28;20554;-63
2024/02/25 11:21:33;;;;;;;2.23;2.03;;;10.90;99.90;;;;;;5074510;28;20436;-65
2024/02/25 11:23:58;;;;;;;3.57;2.50;;;11.00;99.90;;;;;;5074574;28;20190;-65
2024/02/25 11:26:33;;;;;;;2.20;1.63;;;11.10;99.90;;;;;;5073431;28;20420;-68
2024/02/25 11:29:22;;;;;;;2.90;1.60;;;11.10;99.90;;;;;;5072647;28;20204;-66
2024/02/25 11:31:59;;;;;;;2.30;1.63;;;11.30;99.90;;;;;;5072257;28;20408;-66
2024/02/25 11:34:37;;;;;;;2.50;1.60;;;11.40;99.90;;;;;;5074038;28;20506;-66
2024/02/25 11:37:04;;;;;;;1.80;1.70;;;11.40;99.90;;;;;;5074409;28;20423;-69
2024/02/25 11:39:32;;;;;;;2.17;1.67;;;11.40;99.90;;;;;;5074714;28;20456;-68
2024/02/25 11:42:02;;;;;;;11.23;6.40;;;11.40;99.90;;;;;;5074203;28;20457;-66
2024/02/25 11:44:29;;;;;;;2.20;1.80;;;11.50;99.80;;;;;;5073980;28;20409;-67
2024/02/25 11:46:57;;;;;;;1.63;1.50;;;11.50;98.00;;;;;;5073126;28;20492;-67
2024/02/25 11:49:24;;;;;;;2.17;1.60;;;11.40;97.70;;;;;;5073744;28;20434;-68
2024/02/25 11:51:50;;;;;;;1.17;1.07;;;11.60;97.70;;;;;;5073490;28;20536;-65
2024/02/25 11:54:15;;;;;;;1.40;0.97;;;11.50;97.00;;;;;;5072765;28;20492;-66
2024/02/25 11:56:41;;;;;;;1.20;1.10;;;11.40;96.60;;;;;;5073396;28;20182;-64
2024/02/25 11:59:08;;;;;;;1.20;1.10;;;11.40;97.10;;;;;;5074059;28;20285;-64
2024/02/25 12:01:35;;;;;;;2.10;1.30;;;11.50;95.10;;;;;;5073938;28;20537;-65
2024/02/25 12:04:01;;;;;;;1.70;1.60;;;11.50;95.40;;;;;;5073643;28;20951;-65
2024/02/25 12:06:32;;;;;;;1.27;1.17;;;11.60;96.10;;;;;;5073144;28;20953;-64
2024/02/25 12:08:59;;;;;;;2.10;1.37;;;11.60;96.10;;;;;;5071183;28;20438;-66
2024/02/25 12:11:26;;;;;;;2.13;1.57;;;11.70;95.80;;;;;;5073480;28;20424;-66
2024/02/25 12:14:18;;;;;;;2.60;1.53;;;11.80;96.20;;;;;;5073340;28;20693;-64
2024/02/25 12:16:49;;;;;;;1.23;1.13;;;11.90;96.50;;;;;;5073539;28;20421;-65
2024/02/25 12:19:16;;;;;;;1.87;1.13;;;11.90;96.20;;;;;;5073593;28;20455;-65
2024/02/25 12:21:45;;;;;;;2.70;1.10;;;11.90;96.10;;;;;;5073612;28;20405;-65
2024/02/25 12:24:11;;;;;;;1.67;1.20;;;12.00;93.70;;;;;;5076346;28;20425;-64
2024/02/25 12:26:53;;;;;;;1.30;1.20;;;12.10;92.90;;;;;;5066116;28;20420;-67
2024/02/25 12:29:20;;;;;;;1.07;0.90;;;12.20;92.10;;;;;;5070184;28;20440;-67
2024/02/25 12:31:46;;;;;;;6.13;1.67;;;12.20;92.60;;;;;;5071106;28;20459;-66
2024/02/25 12:34:12;;;;;;;1.87;1.30;;;12.30;91.80;;;;;;5073031;28;20425;-66
2024/02/25 12:36:37;;;;;;;1.50;1.00;;;12.20;91.40;;;;;;5072744;28;20170;-66
2024/02/25 12:39:05;;;;;;;1.13;0.90;;;12.20;91.40;;;;;;5073090;28;20190;-67
2024/02/25 12:41:32;;;;;;;1.60;1.03;;;12.10;90.40;;;;;;5072872;28;20167;-66
2024/02/25 12:43:57;;;;;;;1.70;1.20;;;12.30;90.30;;;;;;5070853;28;20471;-65
2024/02/25 12:46:23;;;;;;;2.33;2.13;;;12.50;90.40;;;;;;5064952;28;20408;-65
2024/02/25 12:48:49;;;;;;;1.10;1.00;;;12.50;90.50;;;;;;5071865;28;20175;-67
2024/02/25 12:51:20;;;;;;;1.47;1.07;;;12.60;89.90;;;;;;5073777;28;20228;-65